Search for airport 
image banner adimage banner adimage banner ad
image banner ad

CA81 - Riverside Metro Center

Located in Riverside, United States

ICAO - CA81, IATA -

Data provided by Airmate  

General information

Coordinates: N33°58'59" W117°22'34"
Elevation is 950 feet MSL.
Magnetic variation is 14° East
View others Airports in California

Operational data

Special qualification required
Current time UTC:
Current local time:
Weather at : KRAL - Riverside Muni ( 7 km )
METAR: KRAL 221253Z AUTO 00000KT 9SM CLR 16/14 A2993 RMK AO2 SLP120 T01610139
View NOTAMs / SUP AIP / TFR affecting this airport [VIEW]
Communications frequencies: [VIEW]

Runways:

Airport contact information

Address: Riverside United States

Satellite view of CA81